Pagina principală
METAR-TAF:

METAR-TAF

Aeroporturi :

Mount Isa, Australia

Latitudine: 20-40S, longitudine: 139-28E, elevație: 342 m

Observații meteo curente

Raportul a fost făcut în urmă cu 30 de minute, la 10:00 UTC
Vânt calm
Temperatură 13°C
Umiditate 51%
Presiune 1019 hPa
Vizibilitate de 10 km sau mai mult

METAR: YBMA 261000Z AUTO 00000KT 9999 // NCD 13/03 Q1019

Ora: 20:30 (10:30 UTC)

Prognoză

Raportul a fost făcut în urmă cu 5 ore și 26 de minute, la 05:04 UTC
Prognoză valabilă de la 26 ora 06 UTC la 26 ora 18 UTC
Vânt 5 kt de la Est/Sud-est
Vizibilitate de 10 km sau mai mult
nu există nori sub 1.500 m și nici cumulonimbus

TAF: YBMA 260504Z 2606/2618 11005KT CAVOK

Observații și prognoze meteo pentru peste 4.000 de aeroporturi (rapoarte METAR și TAF).

Stațiile disponibile sunt reprezentate pe hartă prin puncte galbene și roșii.

Țineți indicatorul mouse-ului pe punctul dorit pentru a vedea denumirea stației.

Apoi, faceți clic pentru a vedea observațiile și prognozele meteorologice.

Pentru a schimba harta: Pentru mărire, faceți clic pe butoanele verzi cu cruce neagră; pentru micșorare, pe butonul verde cu o liniuță; pentru hărți învecinate, pe săgețile verzi.


METAR-TAF: